sensor_id;sensor_type;location;lat;lon;timestamp;pressure;altitude;pressure_sealevel;temperature;humidity
61436;BME280;47304;47.456;19.160;2023-04-23T00:01:40;100060.80;;;9.43;58.29
61436;BME280;47304;47.456;19.160;2023-04-23T00:04:07;100061.15;;;9.40;58.30
61436;BME280;47304;47.456;19.160;2023-04-23T00:06:35;100058.89;;;9.35;58.31
61436;BME280;47304;47.456;19.160;2023-04-23T00:09:02;100055.04;;;9.32;58.58
61436;BME280;47304;47.456;19.160;2023-04-23T00:11:29;100058.02;;;9.28;58.67
61436;BME280;47304;47.456;19.160;2023-04-23T00:13:55;100059.75;;;9.23;58.71
61436;BME280;47304;47.456;19.160;2023-04-23T00:16:22;100057.31;;;9.18;58.95
61436;BME280;47304;47.456;19.160;2023-04-23T00:18:49;100056.44;;;9.15;59.00
61436;BME280;47304;47.456;19.160;2023-04-23T00:21:15;100053.81;;;9.11;59.13
61436;BME280;47304;47.456;19.160;2023-04-23T00:23:42;100057.13;;;9.09;59.12
61436;BME280;47304;47.456;19.160;2023-04-23T00:26:08;100053.45;;;9.06;59.38
61436;BME280;47304;47.456;19.160;2023-04-23T00:28:35;100053.27;;;9.03;59.41
61436;BME280;47304;47.456;19.160;2023-04-23T00:31:01;100048.73;;;9.01;59.36
61436;BME280;47304;47.456;19.160;2023-04-23T00:33:28;100048.39;;;8.97;59.53
61436;BME280;47304;47.456;19.160;2023-04-23T00:35:55;100045.23;;;8.94;59.63
61436;BME280;47304;47.456;19.160;2023-04-23T00:38:21;100046.12;;;8.91;59.73
61436;BME280;47304;47.456;19.160;2023-04-23T00:40:48;100045.06;;;8.88;59.72
61436;BME280;47304;47.456;19.160;2023-04-23T00:43:14;100045.92;;;8.86;59.80
61436;BME280;47304;47.456;19.160;2023-04-23T00:45:41;100049.93;;;8.82;59.78
61436;BME280;47304;47.456;19.160;2023-04-23T00:48:08;100044.86;;;8.80;59.95
61436;BME280;47304;47.456;19.160;2023-04-23T00:50:35;100043.30;;;8.78;60.04
61436;BME280;47304;47.456;19.160;2023-04-23T00:53:02;100045.21;;;8.75;60.06
61436;BME280;47304;47.456;19.160;2023-04-23T00:55:28;100046.96;;;8.72;60.19
61436;BME280;47304;47.456;19.160;2023-04-23T00:57:55;100045.02;;;8.70;60.28
61436;BME280;47304;47.456;19.160;2023-04-23T01:00:22;100042.40;;;8.68;60.26
61436;BME280;47304;47.456;19.160;2023-04-23T01:02:48;100036.63;;;8.64;60.36
61436;BME280;47304;47.456;19.160;2023-04-23T01:05:16;100037.15;;;8.61;60.44
61436;BME280;47304;47.456;19.160;2023-04-23T01:07:43;100037.84;;;8.57;60.80
61436;BME280;47304;47.456;19.160;2023-04-23T01:10:10;100040.27;;;8.55;60.73
61436;BME280;47304;47.456;19.160;2023-04-23T01:12:38;100041.50;;;8.52;60.81
61436;BME280;47304;47.456;19.160;2023-04-23T01:15:05;100038.52;;;8.48;60.86
61436;BME280;47304;47.456;19.160;2023-04-23T01:17:32;100041.43;;;8.46;61.08
61436;BME280;47304;47.456;19.160;2023-04-23T01:19:58;100040.39;;;8.44;61.09
61436;BME280;47304;47.456;19.160;2023-04-23T01:22:25;100039.86;;;8.43;61.04
61436;BME280;47304;47.456;19.160;2023-04-23T01:24:51;100042.30;;;8.40;61.03
61436;BME280;47304;47.456;19.160;2023-04-23T01:27:18;100041.05;;;8.37;60.94
61436;BME280;47304;47.456;19.160;2023-04-23T01:29:46;100038.61;;;8.33;60.91
61436;BME280;47304;47.456;19.160;2023-04-23T01:32:13;100039.65;;;8.31;60.98
61436;BME280;47304;47.456;19.160;2023-04-23T01:34:42;100034.58;;;8.29;61.15
61436;BME280;47304;47.456;19.160;2023-04-23T01:37:09;100037.19;;;8.26;61.43
61436;BME280;47304;47.456;19.160;2023-04-23T01:39:36;100040.84;;;8.24;61.54
61436;BME280;47304;47.456;19.160;2023-04-23T01:42:03;100035.77;;;8.22;61.56
61436;BME280;47304;47.456;19.160;2023-04-23T01:44:30;100038.03;;;8.19;61.54
61436;BME280;47304;47.456;19.160;2023-04-23T01:46:57;100035.77;;;8.17;61.64
61436;BME280;47304;47.456;19.160;2023-04-23T01:49:23;100034.70;;;8.12;61.66
61436;BME280;47304;47.456;19.160;2023-04-23T01:51:50;100032.77;;;8.10;61.82
61436;BME280;47304;47.456;19.160;2023-04-23T01:54:16;100033.80;;;8.08;61.83
61436;BME280;47304;47.456;19.160;2023-04-23T01:56:43;100029.95;;;8.06;61.94
61436;BME280;47304;47.456;19.160;2023-04-23T01:59:09;100025.76;;;8.04;61.98
61436;BME280;47304;47.456;19.160;2023-04-23T02:01:40;100023.67;;;8.03;62.13
61436;BME280;47304;47.456;19.160;2023-04-23T02:04:07;100028.19;;;8.02;62.18
61436;BME280;47304;47.456;19.160;2023-04-23T02:06:35;100027.65;;;8.00;62.24
61436;BME280;47304;47.456;19.160;2023-04-23T02:09:01;100027.83;;;7.97;62.38
61436;BME280;47304;47.456;19.160;2023-04-23T02:11:28;100023.62;;;7.94;62.41
61436;BME280;47304;47.456;19.160;2023-04-23T02:13:54;100025.34;;;7.90;62.52
61436;BME280;47304;47.456;19.160;2023-04-23T02:16:21;100019.58;;;7.90;62.62
61436;BME280;47304;47.456;19.160;2023-04-23T02:18:47;100020.45;;;7.88;62.74
61436;BME280;47304;47.456;19.160;2023-04-23T02:21:14;100017.64;;;7.86;62.70
61436;BME280;47304;47.456;19.160;2023-04-23T02:23:40;100025.66;;;7.84;62.86
61436;BME280;47304;47.456;19.160;2023-04-23T02:26:07;100022.69;;;7.81;62.84
61436;BME280;47304;47.456;19.160;2023-04-23T02:28:33;100023.70;;;7.78;62.96
61436;BME280;47304;47.456;19.160;2023-04-23T02:31:00;100021.42;;;7.75;63.03
61436;BME280;47304;47.456;19.160;2023-04-23T02:33:26;100027.87;;;7.73;63.13
61436;BME280;47304;47.456;19.160;2023-04-23T02:35:53;100025.77;;;7.71;63.20
61436;BME280;47304;47.456;19.160;2023-04-23T02:38:19;100027.67;;;7.71;63.26
61436;BME280;47304;47.456;19.160;2023-04-23T02:40:46;100025.58;;;7.68;63.43
61436;BME280;47304;47.456;19.160;2023-04-23T02:43:12;100021.37;;;7.65;63.62
61436;BME280;47304;47.456;19.160;2023-04-23T02:45:39;100017.34;;;7.62;63.75
61436;BME280;47304;47.456;19.160;2023-04-23T02:48:05;100018.21;;;7.61;63.72
61436;BME280;47304;47.456;19.160;2023-04-23T02:50:32;100018.02;;;7.58;63.78
61436;BME280;47304;47.456;19.160;2023-04-23T02:52:58;100012.95;;;7.56;63.81
61436;BME280;47304;47.456;19.160;2023-04-23T02:55:25;100010.83;;;7.53;63.92
61436;BME280;47304;47.456;19.160;2023-04-23T02:57:51;100009.61;;;7.51;63.86
61436;BME280;47304;47.456;19.160;2023-04-23T03:00:18;100003.84;;;7.48;63.89
61436;BME280;47304;47.456;19.160;2023-04-23T03:02:44;100006.78;;;7.46;64.08
61436;BME280;47304;47.456;19.160;2023-04-23T03:05:11;100005.21;;;7.45;64.17
61436;BME280;47304;47.456;19.160;2023-04-23T03:07:38;100004.51;;;7.44;64.20
61436;BME280;47304;47.456;19.160;2023-04-23T03:10:05;100005.02;;;7.43;64.28
61436;BME280;47304;47.456;19.160;2023-04-23T03:12:32;100003.63;;;7.44;64.27
61436;BME280;47304;47.456;19.160;2023-04-23T03:14:58;100005.54;;;7.42;64.25
61436;BME280;47304;47.456;19.160;2023-04-23T03:17:25;100005.20;;;7.42;64.42
61436;BME280;47304;47.456;19.160;2023-04-23T03:19:52;100004.48;;;7.41;64.49
61436;BME280;47304;47.456;19.160;2023-04-23T03:22:18;100004.13;;;7.39;64.49
61436;BME280;47304;47.456;19.160;2023-04-23T03:24:45;100006.91;;;7.38;64.42
61436;BME280;47304;47.456;19.160;2023-04-23T03:27:11;100008.80;;;7.35;64.53
61436;BME280;47304;47.456;19.160;2023-04-23T03:29:38;100006.34;;;7.32;64.37
61436;BME280;47304;47.456;19.160;2023-04-23T03:32:04;100012.95;;;7.29;64.47
61436;BME280;47304;47.456;19.160;2023-04-23T03:34:31;100011.71;;;7.26;64.55
61436;BME280;47304;47.456;19.160;2023-04-23T03:36:57;100013.09;;;7.24;64.62
61436;BME280;47304;47.456;19.160;2023-04-23T03:39:24;100016.21;;;7.23;64.72
61436;BME280;47304;47.456;19.160;2023-04-23T03:41:50;100015.51;;;7.22;64.72
61436;BME280;47304;47.456;19.160;2023-04-23T03:44:17;100014.78;;;7.18;64.95
61436;BME280;47304;47.456;19.160;2023-04-23T03:46:43;100017.91;;;7.16;64.92
61436;BME280;47304;47.456;19.160;2023-04-23T03:49:10;100016.14;;;7.14;65.02
61436;BME280;47304;47.456;19.160;2023-04-23T03:51:36;100016.48;;;7.12;64.98
61436;BME280;47304;47.456;19.160;2023-04-23T03:54:03;100020.13;;;7.11;65.04
61436;BME280;47304;47.456;19.160;2023-04-23T03:56:30;100025.52;;;7.10;65.11
61436;BME280;47304;47.456;19.160;2023-04-23T03:58:56;100029.34;;;7.09;65.27
61436;BME280;47304;47.456;19.160;2023-04-23T04:01:23;100023.41;;;7.07;65.32
61436;BME280;47304;47.456;19.160;2023-04-23T04:03:49;100025.65;;;7.06;65.44
61436;BME280;47304;47.456;19.160;2023-04-23T04:06:16;100027.56;;;7.05;65.64
61436;BME280;47304;47.456;19.160;2023-04-23T04:08:42;100027.92;;;7.06;65.57
61436;BME280;47304;47.456;19.160;2023-04-23T04:11:09;100030.91;;;7.09;65.61
61436;BME280;47304;47.456;19.160;2023-04-23T04:13:35;100025.34;;;7.10;65.65
61436;BME280;47304;47.456;19.160;2023-04-23T04:16:02;100027.45;;;7.11;65.61
61436;BME280;47304;47.456;19.160;2023-04-23T04:18:28;100026.93;;;7.12;65.61
61436;BME280;47304;47.456;19.160;2023-04-23T04:20:55;100027.98;;;7.14;65.68
61436;BME280;47304;47.456;19.160;2023-04-23T04:23:21;100031.52;;;7.18;65.73
61436;BME280;47304;47.456;19.160;2023-04-23T04:25:48;100032.05;;;7.22;65.71
61436;BME280;47304;47.456;19.160;2023-04-23T04:28:14;100034.88;;;7.26;65.68
61436;BME280;47304;47.456;19.160;2023-04-23T04:30:41;100037.17;;;7.30;65.77
61436;BME280;47304;47.456;19.160;2023-04-23T04:33:08;100037.72;;;7.34;65.75
61436;BME280;47304;47.456;19.160;2023-04-23T04:35:34;100038.98;;;7.39;65.71
61436;BME280;47304;47.456;19.160;2023-04-23T04:38:01;100046.17;;;7.45;65.30
61436;BME280;47304;47.456;19.160;2023-04-23T04:40:27;100041.69;;;7.51;64.84
61436;BME280;47304;47.456;19.160;2023-04-23T04:42:54;100043.83;;;7.60;64.98
61436;BME280;47304;47.456;19.160;2023-04-23T04:45:20;100043.37;;;7.71;64.89
61436;BME280;47304;47.456;19.160;2023-04-23T04:47:47;100044.47;;;7.79;64.97
61436;BME280;47304;47.456;19.160;2023-04-23T04:50:13;100045.73;;;7.88;64.71
61436;BME280;47304;47.456;19.160;2023-04-23T04:52:40;100045.96;;;7.97;64.73
61436;BME280;47304;47.456;19.160;2023-04-23T04:55:07;100046.17;;;8.05;64.53
61436;BME280;47304;47.456;19.160;2023-04-23T04:57:33;100045.34;;;8.14;64.50
61436;BME280;47304;47.456;19.160;2023-04-23T05:00:01;100044.33;;;8.22;64.34
61436;BME280;47304;47.456;19.160;2023-04-23T05:02:44;100044.36;;;8.33;64.07
61436;BME280;47304;47.456;19.160;2023-04-23T05:05:10;100046.84;;;8.42;64.01
61436;BME280;47304;47.456;19.160;2023-04-23T05:07:37;100048.82;;;8.52;63.37
61436;BME280;47304;47.456;19.160;2023-04-23T05:10:04;100047.64;;;8.62;63.34
61436;BME280;47304;47.456;19.160;2023-04-23T05:12:30;100043.80;;;8.73;63.08
61436;BME280;47304;47.456;19.160;2023-04-23T05:14:57;100046.10;;;8.83;62.85
61436;BME280;47304;47.456;19.160;2023-04-23T05:17:23;100044.89;;;8.94;62.56
61436;BME280;47304;47.456;19.160;2023-04-23T05:19:50;100047.88;;;9.06;62.44
61436;BME280;47304;47.456;19.160;2023-04-23T05:22:16;100049.27;;;9.18;62.19
61436;BME280;47304;47.456;19.160;2023-04-23T05:24:43;100050.50;;;9.31;61.50
61436;BME280;47304;47.456;19.160;2023-04-23T05:27:09;100052.59;;;9.43;60.73
61436;BME280;47304;47.456;19.160;2023-04-23T05:29:36;100053.27;;;9.55;60.71
61436;BME280;47304;47.456;19.160;2023-04-23T05:32:02;100055.17;;;9.68;58.94
61436;BME280;47304;47.456;19.160;2023-04-23T05:34:29;100056.36;;;9.83;58.69
61436;BME280;47304;47.456;19.160;2023-04-23T05:36:55;100055.98;;;9.97;58.91
61436;BME280;47304;47.456;19.160;2023-04-23T05:39:22;100050.85;;;10.12;58.15
61436;BME280;47304;47.456;19.160;2023-04-23T05:41:49;100050.45;;;10.27;57.71
61436;BME280;47304;47.456;19.160;2023-04-23T05:44:15;100051.27;;;10.42;57.27
61436;BME280;47304;47.456;19.160;2023-04-23T05:46:42;100054.89;;;10.57;56.58
61436;BME280;47304;47.456;19.160;2023-04-23T05:49:08;100050.07;;;10.72;56.26
61436;BME280;47304;47.456;19.160;2023-04-23T05:51:35;100052.07;;;10.88;56.33
61436;BME280;47304;47.456;19.160;2023-04-23T05:54:01;100055.64;;;11.04;55.43
61436;BME280;47304;47.456;19.160;2023-04-23T05:56:28;100051.32;;;11.19;55.04
61436;BME280;47304;47.456;19.160;2023-04-23T05:58:54;100049.08;;;11.34;54.24
61436;BME280;47304;47.456;19.160;2023-04-23T06:01:21;100048.25;;;11.50;53.46
61436;BME280;47304;47.456;19.160;2023-04-23T06:03:47;100054.95;;;11.65;53.47
61436;BME280;47304;47.456;19.160;2023-04-23T06:06:14;100056.54;;;11.81;52.86
61436;BME280;47304;47.456;19.160;2023-04-23T06:08:41;100056.23;;;11.95;52.59
61436;BME280;47304;47.456;19.160;2023-04-23T06:11:07;100055.02;;;12.10;52.21
61436;BME280;47304;47.456;19.160;2023-04-23T06:13:34;100055.41;;;12.22;51.38
61436;BME280;47304;47.456;19.160;2023-04-23T06:16:00;100054.19;;;12.35;51.42
61436;BME280;47304;47.456;19.160;2023-04-23T06:18:27;100051.55;;;12.49;51.00
61436;BME280;47304;47.456;19.160;2023-04-23T06:20:53;100053.62;;;12.64;50.24
61436;BME280;47304;47.456;19.160;2023-04-23T06:23:20;100054.62;;;12.81;49.89
61436;BME280;47304;47.456;19.160;2023-04-23T06:25:46;100054.89;;;12.98;49.94
61436;BME280;47304;47.456;19.160;2023-04-23T06:28:13;100056.94;;;13.14;50.10
61436;BME280;47304;47.456;19.160;2023-04-23T06:30:39;100060.54;;;13.30;49.16
61436;BME280;47304;47.456;19.160;2023-04-23T06:33:07;100058.02;;;13.46;48.88
61436;BME280;47304;47.456;19.160;2023-04-23T06:35:33;100056.69;;;13.62;48.99
61436;BME280;47304;47.456;19.160;2023-04-23T06:38:00;100056.04;;;13.78;48.79
61436;BME280;47304;47.456;19.160;2023-04-23T06:40:26;100058.05;;;13.93;48.65
61436;BME280;47304;47.456;19.160;2023-04-23T06:42:53;100055.52;;;14.06;48.15
61436;BME280;47304;47.456;19.160;2023-04-23T06:45:20;100057.45;;;14.23;47.76
61436;BME280;47304;47.456;19.160;2023-04-23T06:47:47;100059.08;;;14.39;46.96
61436;BME280;47304;47.456;19.160;2023-04-23T06:50:13;100062.78;;;14.55;45.64
61436;BME280;47304;47.456;19.160;2023-04-23T06:52:40;100058.06;;;14.71;45.32
61436;BME280;47304;47.456;19.160;2023-04-23T06:55:07;100057.02;;;14.86;44.49
61436;BME280;47304;47.456;19.160;2023-04-23T06:57:34;100050.85;;;15.00;44.77
61436;BME280;47304;47.456;19.160;2023-04-23T07:00:01;100052.59;;;15.16;44.79
61436;BME280;47304;47.456;19.160;2023-04-23T07:02:27;100047.78;;;15.33;44.22
61436;BME280;47304;47.456;19.160;2023-04-23T07:04:54;100050.52;;;15.50;43.88
61436;BME280;47304;47.456;19.160;2023-04-23T07:07:20;100048.32;;;15.67;43.75
61436;BME280;47304;47.456;19.160;2023-04-23T07:09:47;100045.10;;;15.82;42.67
61436;BME280;47304;47.456;19.160;2023-04-23T07:12:13;100047.05;;;15.96;41.67
61436;BME280;47304;47.456;19.160;2023-04-23T07:14:40;100044.69;;;16.10;41.14
61436;BME280;47304;47.456;19.160;2023-04-23T07:17:07;100043.05;;;16.24;40.75
61436;BME280;47304;47.456;19.160;2023-04-23T07:19:35;100042.89;;;16.36;40.07
61436;BME280;47304;47.456;19.160;2023-04-23T07:22:01;100042.32;;;16.49;38.91
61436;BME280;47304;47.456;19.160;2023-04-23T07:24:28;100042.46;;;16.62;38.37
61436;BME280;47304;47.456;19.160;2023-04-23T07:26:54;100040.42;;;16.77;37.72
61436;BME280;47304;47.456;19.160;2023-04-23T07:29:21;100037.56;;;16.89;37.27
61436;BME280;47304;47.456;19.160;2023-04-23T07:31:48;100035.47;;;17.00;37.35
61436;BME280;47304;47.456;19.160;2023-04-23T07:34:14;100037.91;;;17.12;37.15
61436;BME280;47304;47.456;19.160;2023-04-23T07:36:41;100040.63;;;17.26;37.12
61436;BME280;47304;47.456;19.160;2023-04-23T07:39:07;100036.53;;;17.38;36.16
61436;BME280;47304;47.456;19.160;2023-04-23T07:41:34;100039.73;;;17.48;36.16
61436;BME280;47304;47.456;19.160;2023-04-23T07:44:01;100041.02;;;17.57;36.33
61436;BME280;47304;47.456;19.160;2023-04-23T07:46:27;100038.14;;;17.69;36.69
61436;BME280;47304;47.456;19.160;2023-04-23T07:48:54;100035.34;;;17.83;35.59
61436;BME280;47304;47.456;19.160;2023-04-23T07:51:21;100037.30;;;17.92;35.45
61436;BME280;47304;47.456;19.160;2023-04-23T07:53:47;100031.59;;;17.99;35.34
61436;BME280;47304;47.456;19.160;2023-04-23T07:56:14;100034.98;;;18.08;35.06
61436;BME280;47304;47.456;19.160;2023-04-23T07:58:40;100033.84;;;18.20;34.84
61436;BME280;47304;47.456;19.160;2023-04-23T08:01:07;100033.58;;;18.37;35.56
61436;BME280;47304;47.456;19.160;2023-04-23T08:03:33;100035.14;;;18.56;35.09
61436;BME280;47304;47.456;19.160;2023-04-23T08:06:00;100033.97;;;18.72;34.86
61436;BME280;47304;47.456;19.160;2023-04-23T08:08:27;100034.77;;;18.88;34.53
61436;BME280;47304;47.456;19.160;2023-04-23T08:10:53;100034.40;;;18.98;33.59
61436;BME280;47304;47.456;19.160;2023-04-23T08:13:20;100034.14;;;19.04;32.94
61436;BME280;47304;47.456;19.160;2023-04-23T08:15:46;100035.37;;;19.13;33.00
61436;BME280;47304;47.456;19.160;2023-04-23T08:18:14;100035.07;;;19.21;32.67
61436;BME280;47304;47.456;19.160;2023-04-23T08:20:40;100034.02;;;19.29;32.62
61436;BME280;47304;47.456;19.160;2023-04-23T08:23:07;100030.30;;;19.42;33.24
61436;BME280;47304;47.456;19.160;2023-04-23T08:25:33;100026.52;;;19.60;33.47
61436;BME280;47304;47.456;19.160;2023-04-23T08:28:00;100029.48;;;19.77;32.38
61436;BME280;47304;47.456;19.160;2023-04-23T08:30:26;100025.03;;;19.90;32.27
61436;BME280;47304;47.456;19.160;2023-04-23T08:32:53;100019.66;;;20.03;32.36
61436;BME280;47304;47.456;19.160;2023-04-23T08:35:21;100019.25;;;20.16;31.87
61436;BME280;47304;47.456;19.160;2023-04-23T08:37:48;100018.52;;;20.28;31.77
61436;BME280;47304;47.456;19.160;2023-04-23T08:40:14;100013.52;;;20.40;31.48
61436;BME280;47304;47.456;19.160;2023-04-23T08:42:48;100018.30;;;20.52;30.83
61436;BME280;47304;47.456;19.160;2023-04-23T08:45:15;100013.86;;;20.59;31.18
61436;BME280;47304;47.456;19.160;2023-04-23T08:47:42;100014.80;;;20.66;30.21
61436;BME280;47304;47.456;19.160;2023-04-23T08:50:11;100016.09;;;20.72;30.73
61436;BME280;47304;47.456;19.160;2023-04-23T08:52:40;100009.90;;;20.80;30.73
61436;BME280;47304;47.456;19.160;2023-04-23T08:55:08;100008.30;;;20.83;29.63
61436;BME280;47304;47.456;19.160;2023-04-23T08:57:38;100003.91;;;20.85;29.92
61436;BME280;47304;47.456;19.160;2023-04-23T09:00:10;100001.66;;;20.95;29.87
61436;BME280;47304;47.456;19.160;2023-04-23T09:02:42;100004.59;;;21.01;29.60
61436;BME280;47304;47.456;19.160;2023-04-23T09:05:09;100003.48;;;21.09;30.05
61436;BME280;47304;47.456;19.160;2023-04-23T09:07:36;100003.03;;;21.18;29.27
61436;BME280;47304;47.456;19.160;2023-04-23T09:10:05;99999.95;;;21.26;28.51
61436;BME280;47304;47.456;19.160;2023-04-23T09:12:34;99995.07;;;21.31;28.60
61436;BME280;47304;47.456;19.160;2023-04-23T09:15:02;99997.16;;;21.39;28.88
61436;BME280;47304;47.456;19.160;2023-04-23T09:17:29;99994.01;;;21.49;28.64
61436;BME280;47304;47.456;19.160;2023-04-23T09:19:58;99986.60;;;21.57;28.69
61436;BME280;47304;47.456;19.160;2023-04-23T09:25:04;99983.88;;;21.82;29.39
61436;BME280;47304;47.456;19.160;2023-04-23T09:27:31;99983.31;;;21.96;28.61
61436;BME280;47304;47.456;19.160;2023-04-23T09:29:59;99981.72;;;22.09;28.93
61436;BME280;47304;47.456;19.160;2023-04-23T09:32:39;99980.50;;;22.22;28.70
61436;BME280;47304;47.456;19.160;2023-04-23T09:35:16;99977.73;;;22.30;28.34
61436;BME280;47304;47.456;19.160;2023-04-23T09:37:48;99981.10;;;22.34;27.81
61436;BME280;47304;47.456;19.160;2023-04-23T09:40:17;99979.80;;;22.35;26.94
61436;BME280;47304;47.456;19.160;2023-04-23T09:42:48;99979.34;;;22.33;27.63
61436;BME280;47304;47.456;19.160;2023-04-23T09:45:15;99978.20;;;22.35;27.07
61436;BME280;47304;47.456;19.160;2023-04-23T09:47:56;99979.30;;;22.34;26.98
61436;BME280;47304;47.456;19.160;2023-04-23T09:52:59;99975.03;;;22.57;26.50
61436;BME280;47304;47.456;19.160;2023-04-23T09:55:34;99972.98;;;22.55;26.17
61436;BME280;47304;47.456;19.160;2023-04-23T09:58:02;99967.56;;;22.53;26.63
61436;BME280;47304;47.456;19.160;2023-04-23T10:00:36;99966.50;;;22.56;25.60
61436;BME280;47304;47.456;19.160;2023-04-23T10:03:04;99963.95;;;22.60;25.11
61436;BME280;47304;47.456;19.160;2023-04-23T10:05:37;99962.83;;;22.77;25.74
61436;BME280;47304;47.456;19.160;2023-04-23T10:08:24;99954.05;;;23.05;26.92
61436;BME280;47304;47.456;19.160;2023-04-23T10:10:50;99945.49;;;23.32;26.13
61436;BME280;47304;47.456;19.160;2023-04-23T10:13:35;99942.36;;;23.43;24.17
61436;BME280;47304;47.456;19.160;2023-04-23T10:16:03;99938.21;;;23.58;23.69
61436;BME280;47304;47.456;19.160;2023-04-23T10:18:50;99933.13;;;23.91;23.56
61436;BME280;47304;47.456;19.160;2023-04-23T10:21:18;99927.80;;;24.61;23.70
61436;BME280;47304;47.456;19.160;2023-04-23T10:23:46;99924.27;;;26.11;23.21
61436;BME280;47304;47.456;19.160;2023-04-23T10:26:15;99921.20;;;28.28;21.29
61436;BME280;47304;47.456;19.160;2023-04-23T10:28:46;99919.52;;;30.58;19.57
61436;BME280;47304;47.456;19.160;2023-04-23T10:31:13;99913.76;;;32.67;18.10
61436;BME280;47304;47.456;19.160;2023-04-23T10:33:42;99917.31;;;34.33;15.76
61436;BME280;47304;47.456;19.160;2023-04-23T10:36:24;99911.85;;;35.48;14.92
61436;BME280;47304;47.456;19.160;2023-04-23T10:38:51;99911.55;;;36.68;14.18
61436;BME280;47304;47.456;19.160;2023-04-23T10:41:27;99910.77;;;37.89;14.27
61436;BME280;47304;47.456;19.160;2023-04-23T10:43:56;99908.80;;;39.38;13.38
61436;BME280;47304;47.456;19.160;2023-04-23T10:46:30;99904.05;;;40.37;11.84
61436;BME280;47304;47.456;19.160;2023-04-23T10:51:35;99906.39;;;41.64;10.63
61436;BME280;47304;47.456;19.160;2023-04-23T10:54:05;99902.77;;;42.20;10.68
61436;BME280;47304;47.456;19.160;2023-04-23T10:56:32;99903.04;;;43.07;10.27
61436;BME280;47304;47.456;19.160;2023-04-23T10:58:59;99898.09;;;43.71;9.53
61436;BME280;47304;47.456;19.160;2023-04-23T11:01:27;99894.35;;;44.09;9.23
61436;BME280;47304;47.456;19.160;2023-04-23T11:03:54;99893.63;;;43.88;9.05
61436;BME280;47304;47.456;19.160;2023-04-23T11:09:36;99887.85;;;43.76;9.05
61436;BME280;47304;47.456;19.160;2023-04-23T11:12:06;99890.71;;;41.61;9.58
61436;BME280;47304;47.456;19.160;2023-04-23T11:17:12;99893.50;;;38.34;10.06
61436;BME280;47304;47.456;19.160;2023-04-23T11:19:40;99888.39;;;36.37;11.15
61436;BME280;47304;47.456;19.160;2023-04-23T11:22:15;99887.67;;;34.57;12.66
61436;BME280;47304;47.456;19.160;2023-04-23T11:24:42;99887.87;;;33.14;13.92
61436;BME280;47304;47.456;19.160;2023-04-23T11:27:10;99881.48;;;32.00;14.68
61436;BME280;47304;47.456;19.160;2023-04-23T11:29:39;99888.11;;;30.76;15.32
61436;BME280;47304;47.456;19.160;2023-04-23T11:32:06;99887.77;;;29.69;16.52
61436;BME280;47304;47.456;19.160;2023-04-23T11:34:33;99887.17;;;29.12;17.47
61436;BME280;47304;47.456;19.160;2023-04-23T11:37:01;99883.07;;;28.62;17.98
61436;BME280;47304;47.456;19.160;2023-04-23T11:39:28;99878.95;;;28.28;18.25
61436;BME280;47304;47.456;19.160;2023-04-23T11:41:54;99882.58;;;28.13;18.73
61436;BME280;47304;47.456;19.160;2023-04-23T11:44:21;99882.23;;;28.01;18.82
61436;BME280;47304;47.456;19.160;2023-04-23T11:46:48;99880.16;;;27.78;19.35
61436;BME280;47304;47.456;19.160;2023-04-23T11:49:16;99877.02;;;27.47;19.61
61436;BME280;47304;47.456;19.160;2023-04-23T11:51:44;99880.27;;;27.07;19.82
61436;BME280;47304;47.456;19.160;2023-04-23T11:54:11;99878.86;;;26.59;19.44
61436;BME280;47304;47.456;19.160;2023-04-23T11:56:39;99877.45;;;26.07;19.91
61436;BME280;47304;47.456;19.160;2023-04-23T11:59:05;99876.14;;;25.62;20.44
61436;BME280;47304;47.456;19.160;2023-04-23T12:01:45;99872.58;;;25.29;20.92
61436;BME280;47304;47.456;19.160;2023-04-23T12:04:17;99871.50;;;24.92;20.93
61436;BME280;47304;47.456;19.160;2023-04-23T12:06:46;99868.11;;;24.54;21.15
61436;BME280;47304;47.456;19.160;2023-04-23T12:09:14;99863.76;;;24.28;21.63
61436;BME280;47304;47.456;19.160;2023-04-23T12:11:42;99865.08;;;24.16;22.16
61436;BME280;47304;47.456;19.160;2023-04-23T12:14:11;99860.61;;;24.05;21.75
61436;BME280;47304;47.456;19.160;2023-04-23T12:16:45;99856.42;;;23.97;22.12
61436;BME280;47304;47.456;19.160;2023-04-23T12:19:47;99857.30;;;24.03;22.44
61436;BME280;47304;47.456;19.160;2023-04-23T12:22:06;99848.73;;;24.13;22.70
61436;BME280;47304;47.456;19.160;2023-04-23T12:24:47;99842.25;;;24.25;22.47
61436;BME280;47304;47.456;19.160;2023-04-23T12:27:15;99843.30;;;24.36;21.97
61436;BME280;47304;47.456;19.160;2023-04-23T12:29:41;99836.86;;;24.39;22.00
61436;BME280;47304;47.456;19.160;2023-04-23T12:32:10;99833.25;;;24.39;22.02
61436;BME280;47304;47.456;19.160;2023-04-23T12:34:36;99833.63;;;24.42;22.25
61436;BME280;47304;47.456;19.160;2023-04-23T12:37:16;99829.08;;;24.51;22.73
61436;BME280;47304;47.456;19.160;2023-04-23T12:39:42;99827.87;;;24.53;22.13
61436;BME280;47304;47.456;19.160;2023-04-23T12:42:09;99823.69;;;24.54;22.07
61436;BME280;47304;47.456;19.160;2023-04-23T12:44:37;99822.31;;;24.59;22.17
61436;BME280;47304;47.456;19.160;2023-04-23T12:47:08;99822.27;;;24.62;21.78
61436;BME280;47304;47.456;19.160;2023-04-23T12:49:35;99819.70;;;24.60;22.03
61436;BME280;47304;47.456;19.160;2023-04-23T12:52:03;99821.59;;;24.64;22.91
61436;BME280;47304;47.456;19.160;2023-04-23T12:54:32;99818.35;;;24.73;24.66
61436;BME280;47304;47.456;19.160;2023-04-23T12:57:00;99810.49;;;24.80;23.39
61436;BME280;47304;47.456;19.160;2023-04-23T12:59:26;99804.41;;;24.94;25.04
61436;BME280;47304;47.456;19.160;2023-04-23T13:01:53;99810.93;;;25.11;24.02
61436;BME280;47304;47.456;19.160;2023-04-23T13:04:20;99810.24;;;25.20;22.49